createdAt,value
2018-11-13T00:00:37.256Z,5.40
2018-11-13T00:01:15.916Z,4.95
2018-11-13T00:01:54.084Z,5.20
2018-11-13T00:02:33.582Z,5.22
2018-11-13T00:03:12.865Z,4.25
2018-11-13T00:03:51.143Z,4.40
2018-11-13T00:04:29.635Z,4.20
2018-11-13T00:05:08.723Z,4.78
2018-11-13T00:05:48.478Z,38.73
2018-11-13T00:06:30.691Z,31.05
2018-11-13T00:07:09.161Z,32.85
2018-11-13T00:07:47.454Z,38.65
2018-11-13T00:08:25.659Z,5.45
2018-11-13T00:09:05.994Z,40.60
2018-11-13T00:09:44.402Z,40.30
2018-11-13T00:10:22.598Z,43.40
2018-11-13T00:11:01.096Z,52.95
2018-11-13T00:11:40.310Z,60.85
2018-11-13T00:12:19.775Z,35.87
2018-11-13T00:12:58.024Z,8.23
2018-11-13T00:13:37.258Z,58.55
2018-11-13T00:14:15.407Z,11.83
2018-11-13T00:14:55.395Z,4.65
2018-11-13T00:15:33.721Z,5.08
2018-11-13T00:16:12.039Z,42.10
2018-11-13T00:16:50.423Z,4.43
2018-11-13T00:17:28.408Z,36.40
2018-11-13T00:18:06.763Z,25.45
2018-11-13T00:18:45.421Z,66.67
2018-11-13T00:19:23.926Z,37.50
2018-11-13T00:20:02.218Z,26.30
2018-11-13T00:20:40.090Z,38.78
2018-11-13T00:21:18.569Z,5.10
2018-11-13T00:21:56.568Z,5.33
2018-11-13T00:22:35.100Z,7.80
2018-11-13T00:23:13.520Z,7.50
2018-11-13T00:23:53.102Z,7.72
2018-11-13T00:24:33.524Z,5.33
2018-11-13T00:25:14.349Z,33.18
2018-11-13T00:25:52.910Z,5.45
2018-11-13T00:26:31.324Z,5.03
2018-11-13T00:27:09.480Z,4.75
2018-11-13T00:27:47.810Z,5.00
2018-11-13T00:28:26.355Z,5.50
2018-11-13T00:29:05.107Z,5.35
2018-11-13T00:29:44.110Z,5.75
2018-11-13T00:30:24.511Z,5.12
2018-11-13T00:31:03.162Z,5.37
2018-11-13T00:31:41.307Z,5.37
2018-11-13T00:32:21.022Z,5.65
2018-11-13T00:32:59.465Z,5.00
2018-11-13T00:33:38.756Z,5.10
2018-11-13T00:34:16.829Z,5.97
2018-11-13T00:34:57.054Z,5.83
2018-11-13T00:35:35.699Z,5.73
2018-11-13T00:36:14.896Z,6.30
2018-11-13T00:36:53.092Z,6.10
2018-11-13T00:37:31.232Z,92.15
2018-11-13T00:38:09.937Z,65.67
2018-11-13T00:38:48.075Z,98.22
2018-11-13T00:39:26.493Z,33.73
2018-11-13T00:40:05.095Z,37.60
2018-11-13T00:40:43.850Z,6.10
2018-11-13T00:41:22.301Z,32.48
2018-11-13T00:42:01.186Z,6.27
2018-11-13T00:42:40.398Z,13.03
2018-11-13T00:43:18.545Z,5.90
2018-11-13T00:43:56.883Z,6.15
2018-11-13T00:44:35.043Z,7.70
2018-11-13T00:45:12.967Z,5.42
2018-11-13T00:45:51.244Z,6.37
2018-11-13T00:46:29.783Z,5.80
2018-11-13T00:47:08.213Z,5.80
2018-11-13T00:47:46.685Z,6.42
2018-11-13T00:48:25.619Z,5.42
2018-11-13T00:49:06.282Z,5.60
2018-11-13T00:49:44.569Z,5.03
2018-11-13T00:50:23.980Z,10.28
2018-11-13T00:51:02.223Z,16.45
2018-11-13T00:51:40.933Z,25.02
2018-11-13T00:52:19.403Z,28.15
2018-11-13T00:52:57.305Z,7.67
2018-11-13T00:53:35.510Z,7.05
2018-11-13T00:54:13.946Z,6.12
2018-11-13T00:54:52.070Z,5.87
2018-11-13T00:55:30.782Z,6.30
2018-11-13T00:56:09.219Z,5.42
2018-11-13T00:56:47.776Z,6.05
2018-11-13T00:57:25.689Z,5.30
2018-11-13T00:58:04.224Z,6.30
2018-11-13T00:58:42.427Z,5.53
2018-11-13T00:59:20.378Z,6.20
2018-11-13T01:00:01.525Z,5.65
2018-11-13T01:00:39.441Z,6.10
2018-11-13T01:01:17.356Z,5.47
2018-11-13T01:01:55.295Z,5.75
2018-11-13T01:02:33.142Z,5.80
2018-11-13T01:03:12.055Z,6.20
2018-11-13T01:03:50.167Z,5.70
2018-11-13T01:04:28.059Z,6.00
2018-11-13T01:05:06.006Z,6.20
2018-11-13T01:05:44.537Z,5.83
2018-11-13T01:06:22.698Z,6.00
2018-11-13T01:07:00.573Z,5.78
2018-11-13T01:07:38.439Z,6.08
2018-11-13T01:08:16.364Z,6.00
2018-11-13T01:08:54.214Z,5.72
2018-11-13T01:09:34.270Z,6.20
2018-11-13T01:10:13.234Z,5.67
2018-11-13T01:10:51.966Z,6.10
2018-11-13T01:11:29.810Z,5.55
2018-11-13T01:12:07.878Z,6.30
2018-11-13T01:12:46.738Z,5.58
2018-11-13T01:13:24.710Z,6.10
2018-11-13T01:14:02.727Z,6.65
2018-11-13T01:14:40.555Z,5.80
2018-11-13T01:15:19.841Z,6.60
2018-11-13T01:15:57.742Z,6.30
2018-11-13T01:16:35.699Z,6.10
2018-11-13T01:17:14.155Z,5.58
2018-11-13T01:17:52.598Z,6.08
2018-11-13T01:18:30.528Z,6.70
2018-11-13T01:19:08.432Z,5.95
2018-11-13T01:19:46.339Z,5.87
2018-11-13T01:20:24.487Z,5.92
2018-11-13T01:21:02.350Z,5.70
2018-11-13T01:21:40.334Z,7.75
2018-11-13T01:22:18.314Z,6.40
2018-11-13T01:22:56.124Z,5.33
2018-11-13T01:23:34.075Z,5.75
2018-11-13T01:24:12.055Z,6.12
2018-11-13T01:24:50.213Z,6.58
2018-11-13T01:25:28.576Z,6.83
2018-11-13T01:26:06.661Z,6.20
2018-11-13T01:26:45.243Z,5.80
2018-11-13T01:27:23.330Z,6.58
2018-11-13T01:28:01.729Z,5.78
2018-11-13T01:28:41.358Z,6.40
2018-11-13T01:29:19.320Z,6.45
2018-11-13T01:29:57.503Z,7.28
2018-11-13T01:30:35.734Z,6.13
2018-11-13T01:31:13.825Z,6.78
2018-11-13T01:31:51.956Z,6.25
2018-11-13T01:32:31.241Z,6.53
2018-11-13T01:33:09.158Z,5.92
2018-11-13T01:33:46.979Z,6.33
2018-11-13T01:34:24.932Z,5.55
2018-11-13T01:35:03.095Z,5.50
2018-11-13T01:35:41.783Z,5.45
2018-11-13T01:36:19.621Z,6.55
2018-11-13T01:36:57.812Z,5.92
2018-11-13T01:37:35.696Z,5.25
2018-11-13T01:38:13.644Z,5.22
2018-11-13T01:38:51.531Z,5.25
2018-11-13T01:39:29.556Z,6.22
2018-11-13T01:40:10.774Z,4.92
2018-11-13T01:40:48.912Z,4.55
2018-11-13T01:41:26.750Z,5.12
2018-11-13T01:42:04.618Z,5.80
2018-11-13T01:42:43.184Z,5.23
2018-11-13T01:43:21.178Z,4.97
2018-11-13T01:43:59.083Z,4.92
2018-11-13T01:44:37.131Z,4.70
2018-11-13T01:45:18.082Z,5.03
2018-11-13T01:45:55.956Z,5.28
2018-11-13T01:46:33.871Z,6.43
2018-11-13T01:47:11.801Z,5.12
2018-11-13T01:47:49.718Z,5.22
2018-11-13T01:48:28.072Z,4.55
2018-11-13T01:49:06.034Z,4.95
2018-11-13T01:49:43.967Z,5.20
2018-11-13T01:50:21.865Z,4.97
2018-11-13T01:50:59.818Z,4.67
2018-11-13T01:51:37.793Z,4.65
2018-11-13T01:52:15.633Z,5.50
2018-11-13T01:52:53.695Z,4.97
2018-11-13T01:53:31.692Z,5.10
2018-11-13T01:54:09.616Z,5.67
2018-11-13T01:54:47.462Z,5.10
2018-11-13T01:55:26.239Z,5.90
2018-11-13T01:56:04.111Z,5.12
2018-11-13T01:56:42.079Z,5.23
2018-11-13T01:57:20.066Z,5.28
2018-11-13T01:57:58.226Z,5.00
2018-11-13T01:58:36.328Z,5.40
2018-11-13T01:59:14.324Z,5.08
2018-11-13T01:59:52.226Z,5.92
2018-11-13T02:00:30.397Z,5.57
2018-11-13T02:01:08.242Z,6.07
2018-11-13T02:01:46.170Z,5.43
2018-11-13T02:02:24.132Z,4.90
2018-11-13T02:03:02.047Z,6.12
2018-11-13T02:03:39.850Z,5.12
2018-11-13T02:04:17.626Z,5.95
2018-11-13T02:04:55.753Z,5.70
2018-11-13T02:05:33.691Z,5.77
2018-11-13T02:06:11.551Z,5.85
2018-11-13T02:06:49.446Z,5.72
2018-11-13T02:07:27.660Z,5.50
2018-11-13T02:08:05.757Z,5.50
2018-11-13T02:08:43.809Z,5.87
2018-11-13T02:09:21.789Z,5.17
2018-11-13T02:09:59.687Z,6.00
2018-11-13T02:10:37.449Z,6.00
2018-11-13T02:11:15.361Z,5.85
2018-11-13T02:11:54.267Z,4.95
2018-11-13T02:12:32.130Z,5.53
2018-11-13T02:13:10.494Z,5.58
2018-11-13T02:13:48.464Z,5.62
2018-11-13T02:14:27.709Z,5.07
2018-11-13T02:15:05.788Z,6.28
2018-11-13T02:15:43.756Z,5.58
2018-11-13T02:16:22.043Z,5.28
2018-11-13T02:16:59.906Z,5.43
2018-11-13T02:17:37.741Z,6.15
2018-11-13T02:18:15.763Z,6.40
2018-11-13T02:18:53.589Z,5.92
2018-11-13T02:19:31.454Z,5.78
2018-11-13T02:20:11.709Z,6.05
2018-11-13T02:20:49.614Z,7.35
2018-11-13T02:21:27.563Z,7.20
2018-11-13T02:22:05.595Z,7.20
2018-11-13T02:22:43.855Z,7.00
2018-11-13T02:23:21.738Z,6.35
2018-11-13T02:23:59.769Z,6.03
2018-11-13T02:24:37.659Z,6.20
2018-11-13T02:25:17.200Z,7.17
2018-11-13T02:25:55.127Z,6.83
2018-11-13T02:26:33.294Z,7.37
2018-11-13T02:27:11.510Z,7.12
2018-11-13T02:27:49.684Z,6.40
2018-11-13T02:28:27.630Z,6.87
2018-11-13T02:29:05.540Z,6.33
2018-11-13T02:29:43.544Z,6.83
2018-11-13T02:30:22.893Z,7.00
2018-11-13T02:31:03.096Z,7.10
2018-11-13T02:31:41.239Z,7.22
2018-11-13T02:32:19.183Z,7.85
2018-11-13T02:32:57.099Z,7.22
2018-11-13T02:33:35.243Z,7.57
2018-11-13T02:34:13.174Z,7.00
2018-11-13T02:34:51.550Z,7.08
2018-11-13T02:35:29.460Z,7.15
2018-11-13T02:36:07.417Z,7.30
2018-11-13T02:36:45.300Z,7.12
2018-11-13T02:37:23.136Z,7.17
2018-11-13T02:38:01.070Z,7.00
2018-11-13T02:38:39.032Z,6.83
2018-11-13T02:39:17.088Z,7.90
2018-11-13T02:39:55.017Z,7.25
2018-11-13T02:40:32.882Z,6.97
2018-11-13T02:41:10.800Z,6.85
2018-11-13T02:41:48.782Z,6.75
2018-11-13T02:42:27.496Z,7.12
2018-11-13T02:43:05.420Z,6.60
2018-11-13T02:43:43.215Z,6.70
2018-11-13T02:44:21.286Z,6.83
2018-11-13T02:44:59.331Z,6.00
2018-11-13T02:45:37.176Z,6.77
2018-11-13T02:46:15.531Z,6.25
2018-11-13T02:46:53.578Z,6.40
2018-11-13T02:47:31.478Z,6.67
2018-11-13T02:48:09.358Z,6.95
2018-11-13T02:48:47.242Z,7.37
2018-11-13T02:49:25.808Z,7.03
2018-11-13T02:50:05.543Z,6.62
2018-11-13T02:50:43.392Z,6.37
2018-11-13T02:51:21.225Z,7.07
2018-11-13T02:51:59.348Z,7.20
2018-11-13T02:52:37.151Z,6.90
2018-11-13T02:53:15.059Z,7.43
2018-11-13T02:53:52.981Z,7.40
2018-11-13T02:54:30.943Z,7.97
2018-11-13T02:55:09.198Z,7.20
2018-11-13T02:55:47.059Z,8.27
2018-11-13T02:56:25.349Z,7.27
2018-11-13T02:57:03.236Z,8.23
2018-11-13T02:57:41.275Z,7.77
2018-11-13T02:58:19.236Z,7.62
2018-11-13T02:58:57.312Z,8.33
2018-11-13T02:59:35.434Z,8.57
2018-11-13T03:00:20.298Z,8.10
2018-11-13T03:00:58.284Z,7.70
2018-11-13T03:01:36.339Z,8.63
2018-11-13T03:02:14.293Z,8.07
2018-11-13T03:02:53.355Z,8.13
2018-11-13T03:03:31.261Z,8.40
2018-11-13T03:04:09.114Z,8.53
2018-11-13T03:04:47.012Z,8.60
2018-11-13T03:05:24.919Z,8.47
2018-11-13T03:06:02.876Z,8.87
2018-11-13T03:06:40.783Z,9.07
2018-11-13T03:07:18.698Z,8.10
2018-11-13T03:07:56.617Z,9.07
2018-11-13T03:08:34.487Z,8.77
2018-11-13T03:09:12.879Z,8.65
2018-11-13T03:09:50.767Z,9.03
2018-11-13T03:10:28.900Z,8.47
2018-11-13T03:11:06.728Z,9.50
2018-11-13T03:11:44.602Z,9.40
2018-11-13T03:12:22.498Z,9.80
2018-11-13T03:13:00.424Z,9.53
2018-11-13T03:13:39.674Z,8.35
2018-11-13T03:14:17.565Z,8.43
2018-11-13T03:14:55.459Z,9.35
2018-11-13T03:15:33.423Z,8.83
2018-11-13T03:16:11.307Z,10.20
2018-11-13T03:16:49.424Z,9.30
2018-11-13T03:17:27.375Z,9.63
2018-11-13T03:18:05.324Z,9.93
2018-11-13T03:18:43.248Z,9.97
2018-11-13T03:19:21.299Z,9.70
2018-11-13T03:19:59.176Z,9.18
2018-11-13T03:20:37.324Z,10.13
2018-11-13T03:21:15.243Z,10.00
2018-11-13T03:21:54.064Z,9.70
2018-11-13T03:22:32.132Z,9.60
2018-11-13T03:23:10.013Z,9.23
2018-11-13T03:23:47.930Z,10.47
2018-11-13T03:24:25.975Z,11.18
2018-11-13T03:25:04.081Z,11.00
2018-11-13T03:25:41.946Z,11.53
2018-11-13T03:26:20.340Z,10.70
2018-11-13T03:26:58.401Z,11.40
2018-11-13T03:27:36.335Z,10.28
2018-11-13T03:28:15.154Z,12.30
2018-11-13T03:28:53.142Z,12.55
2018-11-13T03:29:32.191Z,11.17
2018-11-13T03:30:14.492Z,13.97
2018-11-13T03:30:53.354Z,11.53
2018-11-13T03:31:31.483Z,12.63
2018-11-13T03:32:09.479Z,13.47
2018-11-13T03:32:47.557Z,13.17
2018-11-13T03:33:25.432Z,13.50
2018-11-13T03:34:03.318Z,13.80
2018-11-13T03:34:41.278Z,12.07
2018-11-13T03:35:20.451Z,12.60
2018-11-13T03:35:58.504Z,12.77
2018-11-13T03:36:36.638Z,13.07
2018-11-13T03:37:14.531Z,14.17
2018-11-13T03:37:52.554Z,13.00
2018-11-13T03:38:30.786Z,14.00
2018-11-13T03:39:11.597Z,13.67
2018-11-13T03:39:49.634Z,14.07
2018-11-13T03:40:27.841Z,14.27
2018-11-13T03:41:05.769Z,13.27
2018-11-13T03:41:43.633Z,14.00
2018-11-13T03:42:21.596Z,14.20
2018-11-13T03:42:59.534Z,14.58
2018-11-13T03:43:37.449Z,16.13
2018-11-13T03:44:15.577Z,14.50
2018-11-13T03:44:53.480Z,14.30
2018-11-13T03:45:31.241Z,14.05
2018-11-13T03:46:09.351Z,13.47
2018-11-13T03:46:47.736Z,14.58
2018-11-13T03:47:25.640Z,14.90
2018-11-13T03:48:03.571Z,15.10
2018-11-13T03:48:41.527Z,14.63
2018-11-13T03:49:19.558Z,13.73
2018-11-13T03:49:57.564Z,13.80
2018-11-13T03:50:35.536Z,14.67
2018-11-13T03:51:13.357Z,14.03
2018-11-13T03:51:51.439Z,13.93
2018-11-13T03:52:29.364Z,15.23
2018-11-13T03:53:07.193Z,13.80
2018-11-13T03:53:45.063Z,13.17
2018-11-13T03:54:22.988Z,13.60
2018-11-13T03:55:01.937Z,14.15
2018-11-13T03:55:39.743Z,13.83
2018-11-13T03:56:17.585Z,14.60
2018-11-13T03:56:55.838Z,13.67
2018-11-13T03:57:33.752Z,13.40
2018-11-13T03:58:11.692Z,13.93
2018-11-13T03:58:49.640Z,15.18
2018-11-13T03:59:27.969Z,14.60
2018-11-13T04:00:06.006Z,14.78
2018-11-13T04:00:44.057Z,14.57
2018-11-13T04:01:21.893Z,15.35
2018-11-13T04:01:59.768Z,15.43
2018-11-13T04:02:37.848Z,14.80
2018-11-13T04:03:16.662Z,15.37
2018-11-13T04:03:54.521Z,14.13
2018-11-13T04:04:32.639Z,15.23
2018-11-13T04:05:13.112Z,15.40
2018-11-13T04:05:51.938Z,14.20
2018-11-13T04:06:30.054Z,14.80
2018-11-13T04:07:08.671Z,14.90
2018-11-13T04:07:50.882Z,13.80
2018-11-13T04:08:28.817Z,14.83
2018-11-13T04:09:07.323Z,15.07
2018-11-13T04:09:45.272Z,14.30
2018-11-13T04:10:24.006Z,15.63
2018-11-13T04:11:01.927Z,14.90
2018-11-13T04:11:40.240Z,14.67
2018-11-13T04:12:18.068Z,17.52
2018-11-13T04:12:55.928Z,16.80
2018-11-13T04:13:33.808Z,16.00
2018-11-13T04:14:13.064Z,14.77
2018-11-13T04:14:50.980Z,15.13
2018-11-13T04:15:29.068Z,16.87
2018-11-13T04:16:07.560Z,18.47
2018-11-13T04:16:45.448Z,16.83
2018-11-13T04:17:23.255Z,17.87
2018-11-13T04:18:01.131Z,16.90
2018-11-13T04:18:39.103Z,16.93
2018-11-13T04:19:17.096Z,16.07
2018-11-13T04:19:54.923Z,15.97
2018-11-13T04:20:32.913Z,17.00
2018-11-13T04:21:10.835Z,16.40
2018-11-13T04:21:58.728Z,16.60
2018-11-13T04:22:36.633Z,16.03
2018-11-13T04:23:14.949Z,16.33
2018-11-13T04:23:53.000Z,17.87
2018-11-13T04:24:30.932Z,17.23
2018-11-13T04:25:10.633Z,18.57
2018-11-13T04:25:48.679Z,17.87
2018-11-13T04:26:26.679Z,18.70
2018-11-13T04:27:04.742Z,20.00
2018-11-13T04:27:43.798Z,19.37
2018-11-13T04:28:21.798Z,21.50
2018-11-13T04:28:59.708Z,21.03
2018-11-13T04:29:37.765Z,20.60
2018-11-13T04:30:17.690Z,19.93
2018-11-13T04:30:55.703Z,20.30
2018-11-13T04:31:33.790Z,20.57
2018-11-13T04:32:11.722Z,20.23
2018-11-13T04:32:49.582Z,20.20
2018-11-13T04:33:27.657Z,19.73
2018-11-13T04:34:05.669Z,20.10
2018-11-13T04:34:43.519Z,21.10
2018-11-13T04:35:21.624Z,20.35
2018-11-13T04:35:59.593Z,20.47
2018-11-13T04:36:37.575Z,21.00
2018-11-13T04:37:15.655Z,19.77
2018-11-13T04:37:53.549Z,19.77
2018-11-13T04:38:31.376Z,20.30
2018-11-13T04:39:10.264Z,20.10
2018-11-13T04:39:48.485Z,20.40
2018-11-13T04:40:27.280Z,21.57
2018-11-13T04:41:05.406Z,21.30
2018-11-13T04:41:43.586Z,20.97
2018-11-13T04:42:21.688Z,21.67
2018-11-13T04:43:00.574Z,21.80
2018-11-13T04:43:38.578Z,21.27
2018-11-13T04:44:16.494Z,21.43
2018-11-13T04:44:54.558Z,20.27
2018-11-13T04:45:32.535Z,21.13
2018-11-13T04:46:10.391Z,20.37
2018-11-13T04:46:48.556Z,19.50
2018-11-13T04:47:26.472Z,23.23
2018-11-13T04:48:04.326Z,23.70
2018-11-13T04:48:42.318Z,22.53
2018-11-13T04:49:20.343Z,23.67
2018-11-13T04:49:58.297Z,22.67
2018-11-13T04:50:37.023Z,20.17
2018-11-13T04:51:15.053Z,21.40
2018-11-13T04:51:52.932Z,23.20
2018-11-13T04:52:30.919Z,20.90
2018-11-13T04:53:09.064Z,21.37
2018-11-13T04:53:46.945Z,21.30
2018-11-13T04:54:24.894Z,21.73
2018-11-13T04:55:02.802Z,21.60
2018-11-13T04:55:40.769Z,22.23
2018-11-13T04:56:18.792Z,22.13
2018-11-13T04:56:56.658Z,22.43
2018-11-13T04:57:34.593Z,23.27
2018-11-13T04:58:12.402Z,23.77
2018-11-13T04:58:51.299Z,21.70
2018-11-13T04:59:29.179Z,22.83
2018-11-13T05:00:08.227Z,23.10
2018-11-13T05:00:46.154Z,23.37
2018-11-13T05:01:24.191Z,24.03
2018-11-13T05:02:02.119Z,22.90
2018-11-13T05:02:41.542Z,24.10
2018-11-13T05:03:19.530Z,23.77
2018-11-13T05:03:57.484Z,23.27
2018-11-13T05:04:35.378Z,25.37
2018-11-13T05:05:14.527Z,23.97
2018-11-13T05:05:52.467Z,22.90
2018-11-13T05:06:30.821Z,22.70
2018-11-13T05:07:10.084Z,23.00
2018-11-13T05:07:49.962Z,21.23
2018-11-13T05:08:29.222Z,24.10
2018-11-13T05:09:07.504Z,22.87
2018-11-13T05:09:45.285Z,21.10
2018-11-13T05:10:23.170Z,21.13
2018-11-13T05:11:01.240Z,21.30
2018-11-13T05:11:39.299Z,21.53
2018-11-13T05:12:17.447Z,20.87
2018-11-13T05:12:55.328Z,20.40
2018-11-13T05:13:33.197Z,20.70
2018-11-13T05:14:11.293Z,19.07
2018-11-13T05:14:49.544Z,19.85
2018-11-13T05:15:27.304Z,19.87
2018-11-13T05:16:05.278Z,19.23
2018-11-13T05:16:43.208Z,20.10
2018-11-13T05:17:21.230Z,20.03
2018-11-13T05:17:59.191Z,19.13
2018-11-13T05:18:37.091Z,20.17
2018-11-13T05:19:14.978Z,19.87
2018-11-13T05:19:52.981Z,20.17
2018-11-13T05:20:30.873Z,20.90
2018-11-13T05:21:08.958Z,17.27
2018-11-13T05:21:47.104Z,19.13
2018-11-13T05:22:24.975Z,17.87
2018-11-13T05:23:03.735Z,17.60
2018-11-13T05:23:42.916Z,19.63
2018-11-13T05:24:20.935Z,17.33
2018-11-13T05:24:59.650Z,19.03
2018-11-13T05:25:38.040Z,18.30
2018-11-13T05:26:15.967Z,19.40
2018-11-13T05:26:53.923Z,18.77
2018-11-13T05:27:31.811Z,18.60
2018-11-13T05:28:09.802Z,17.10
2018-11-13T05:28:47.706Z,18.80
2018-11-13T05:29:25.593Z,18.27
2018-11-13T05:30:03.498Z,17.67
2018-11-13T05:30:41.677Z,18.10
2018-11-13T05:31:19.567Z,17.37
2018-11-13T05:31:57.662Z,18.17
2018-11-13T05:32:35.638Z,18.87
2018-11-13T05:33:13.687Z,18.30
2018-11-13T05:33:51.535Z,17.70
2018-11-13T05:34:29.635Z,18.30
2018-11-13T05:35:07.963Z,17.03
2018-11-13T05:35:46.039Z,17.67
2018-11-13T05:36:24.254Z,16.37
2018-11-13T05:37:02.215Z,15.13
2018-11-13T05:37:40.441Z,15.83
2018-11-13T05:38:18.377Z,15.30
2018-11-13T05:38:56.323Z,16.10
2018-11-13T05:39:34.431Z,17.17
2018-11-13T05:40:15.834Z,16.00
2018-11-13T05:40:53.758Z,15.10
2018-11-13T05:41:31.613Z,15.77
2018-11-13T05:42:09.759Z,15.60
2018-11-13T05:42:47.589Z,15.10
2018-11-13T05:43:25.491Z,14.67
2018-11-13T05:44:03.332Z,14.27
2018-11-13T05:44:41.432Z,13.43
2018-11-13T05:45:20.860Z,14.30
2018-11-13T05:45:58.702Z,14.20
2018-11-13T05:46:36.691Z,14.07
2018-11-13T05:47:14.950Z,14.60
2018-11-13T05:47:52.875Z,13.20
2018-11-13T05:48:30.837Z,14.80
2018-11-13T05:49:08.771Z,14.60
2018-11-13T05:49:46.592Z,14.20
2018-11-13T05:50:24.511Z,15.30
2018-11-13T05:51:03.748Z,15.40
2018-11-13T05:51:41.774Z,15.60
2018-11-13T05:52:19.682Z,14.80
2018-11-13T05:52:57.673Z,15.07
2018-11-13T05:53:35.829Z,15.03
2018-11-13T05:54:14.688Z,13.97
2018-11-13T05:54:52.524Z,13.37
2018-11-13T05:55:30.579Z,13.30
2018-11-13T05:56:08.435Z,15.27
2018-11-13T05:56:46.256Z,13.87
2018-11-13T05:57:24.116Z,14.87
2018-11-13T05:58:02.156Z,14.97
2018-11-13T05:58:40.023Z,16.57
2018-11-13T05:59:18.092Z,14.43
2018-11-13T05:59:57.046Z,14.83
2018-11-13T06:00:37.114Z,14.90
2018-11-13T06:01:15.335Z,15.70
2018-11-13T06:01:53.255Z,14.23
2018-11-13T06:02:31.179Z,15.97
2018-11-13T06:03:09.011Z,16.47
2018-11-13T06:03:46.884Z,13.67
2018-11-13T06:04:24.785Z,15.30
2018-11-13T06:05:02.818Z,14.80
2018-11-13T06:05:40.695Z,14.80
2018-11-13T06:06:18.591Z,15.70
2018-11-13T06:06:56.587Z,14.87
2018-11-13T06:07:34.470Z,15.33
2018-11-13T06:08:12.363Z,15.13
2018-11-13T06:08:50.303Z,15.07
2018-11-13T06:09:28.180Z,15.07
2018-11-13T06:10:06.111Z,14.80
2018-11-13T06:10:44.288Z,15.30
2018-11-13T06:11:22.112Z,14.77
2018-11-13T06:12:00.077Z,15.27
2018-11-13T06:12:38.034Z,15.13
2018-11-13T06:13:16.167Z,16.30
2018-11-13T06:13:54.758Z,15.33
2018-11-13T06:14:32.610Z,16.70
2018-11-13T06:15:11.164Z,16.20
2018-11-13T06:15:49.305Z,16.13
2018-11-13T06:16:27.312Z,15.27
2018-11-13T06:17:05.372Z,14.63
2018-11-13T06:17:43.319Z,15.33
2018-11-13T06:18:21.388Z,14.80
2018-11-13T06:18:59.386Z,15.43
2018-11-13T06:19:37.272Z,15.53
2018-11-13T06:20:16.760Z,15.10
2018-11-13T06:20:54.852Z,15.53
2018-11-13T06:21:32.703Z,15.50
2018-11-13T06:22:10.543Z,15.53
2018-11-13T06:22:48.402Z,16.80
2018-11-13T06:23:26.542Z,15.30
2018-11-13T06:24:04.836Z,14.70
2018-11-13T06:24:42.727Z,17.00
2018-11-13T06:25:20.834Z,16.47
2018-11-13T06:25:58.842Z,15.73
2018-11-13T06:26:36.686Z,16.47
2018-11-13T06:27:14.515Z,17.57
2018-11-13T06:27:58.393Z,17.40
2018-11-13T06:28:36.373Z,16.80
2018-11-13T06:29:14.508Z,17.50
2018-11-13T06:29:52.456Z,15.60
2018-11-13T06:30:30.411Z,17.47
2018-11-13T06:31:08.303Z,17.87
2018-11-13T06:31:46.716Z,15.43
2018-11-13T06:32:24.537Z,16.83
2018-11-13T06:33:02.627Z,16.53
2018-11-13T06:33:40.463Z,16.77
2018-11-13T06:34:18.425Z,16.40
2018-11-13T06:34:56.379Z,15.93
2018-11-13T06:35:34.604Z,16.00
2018-11-13T06:36:12.614Z,18.33
2018-11-13T06:36:50.641Z,17.60
2018-11-13T06:37:28.776Z,16.33
2018-11-13T06:38:06.637Z,17.30
2018-11-13T06:38:44.635Z,17.10
2018-11-13T06:39:22.895Z,16.50
2018-11-13T06:40:00.727Z,17.47
2018-11-13T06:40:38.731Z,16.90
2018-11-13T06:41:16.678Z,14.90
2018-11-13T06:41:54.509Z,17.50
2018-11-13T06:42:32.920Z,17.13
2018-11-13T06:43:11.003Z,16.00
2018-11-13T06:43:48.926Z,15.80
2018-11-13T06:44:26.931Z,17.63
2018-11-13T06:45:04.891Z,15.33
2018-11-13T06:45:42.843Z,14.33
2018-11-13T06:46:20.799Z,15.27
2018-11-13T06:46:58.882Z,14.07
2018-11-13T06:47:37.136Z,15.70
2018-11-13T06:48:15.488Z,14.75
2018-11-13T06:48:53.325Z,14.73
2018-11-13T06:49:31.291Z,14.33
2018-11-13T06:50:10.166Z,14.90
2018-11-13T06:50:48.074Z,15.10
2018-11-13T06:51:26.071Z,15.70
2018-11-13T06:52:05.278Z,14.63
2018-11-13T06:52:43.490Z,14.37
2018-11-13T06:53:21.536Z,15.30
2018-11-13T06:54:08.383Z,15.70
2018-11-13T06:55:11.355Z,15.03
2018-11-13T06:55:52.337Z,15.30
2018-11-13T06:56:31.278Z,14.90
2018-11-13T06:57:09.186Z,15.20
2018-11-13T06:57:47.618Z,14.50
2018-11-13T06:58:25.676Z,14.47
2018-11-13T06:59:03.750Z,14.33
2018-11-13T06:59:41.680Z,14.67
2018-11-13T07:00:19.641Z,13.93
2018-11-13T07:00:57.547Z,14.47
2018-11-13T07:01:36.436Z,14.20
2018-11-13T07:02:14.297Z,13.40
2018-11-13T07:02:52.390Z,13.70
2018-11-13T07:03:30.246Z,14.97
2018-11-13T07:04:08.611Z,13.97
2018-11-13T07:04:46.692Z,14.33
2018-11-13T07:05:24.711Z,14.03
2018-11-13T07:06:02.655Z,14.03
2018-11-13T07:06:40.544Z,13.40
2018-11-13T07:07:18.484Z,12.97
2018-11-13T07:07:56.473Z,14.37
2018-11-13T07:08:34.409Z,14.67
2018-11-13T07:09:12.598Z,13.50
2018-11-13T07:09:50.619Z,13.30
2018-11-13T07:10:29.426Z,15.27
2018-11-13T07:11:07.273Z,13.37
2018-11-13T07:11:45.430Z,12.40
2018-11-13T07:12:23.576Z,13.40
2018-11-13T07:13:02.627Z,14.20
2018-11-13T07:13:40.656Z,14.00
2018-11-13T07:14:18.777Z,13.33
2018-11-13T07:14:56.816Z,11.73
2018-11-13T07:15:37.401Z,12.70
2018-11-13T07:16:15.258Z,12.60
2018-11-13T07:16:53.371Z,12.47
2018-11-13T07:17:31.293Z,13.93
2018-11-13T07:18:09.379Z,13.97
2018-11-13T07:18:47.184Z,13.20
2018-11-13T07:19:24.998Z,13.17
2018-11-13T07:20:03.179Z,13.37
2018-11-13T07:20:41.062Z,13.23
2018-11-13T07:21:19.164Z,13.50
2018-11-13T07:21:57.919Z,13.23
2018-11-13T07:22:36.137Z,13.70
2018-11-13T07:23:57.396Z,14.00
2018-11-13T07:24:35.303Z,14.20
2018-11-13T07:25:14.256Z,13.00
2018-11-13T07:25:52.592Z,12.73
2018-11-13T07:26:30.473Z,14.07
2018-11-13T07:27:08.452Z,13.17
2018-11-13T07:27:46.931Z,12.00
2018-11-13T07:28:25.824Z,13.77
2018-11-13T07:29:04.880Z,13.67
2018-11-13T07:29:42.891Z,13.50
2018-11-13T07:30:21.662Z,13.20
2018-11-13T07:30:59.630Z,12.73
2018-11-13T07:31:37.770Z,12.60
2018-11-13T07:32:15.853Z,12.50
2018-11-13T07:32:53.807Z,14.40
2018-11-13T07:33:31.983Z,13.40
2018-11-13T07:34:10.179Z,13.17
2018-11-13T07:34:48.107Z,13.53
2018-11-13T07:35:26.059Z,11.90
2018-11-13T07:36:03.900Z,11.03
2018-11-13T07:36:41.772Z,12.50
2018-11-13T07:37:19.643Z,12.07
2018-11-13T07:38:01.477Z,11.90
2018-11-13T07:38:39.275Z,11.27
2018-11-13T07:39:18.007Z,12.40
2018-11-13T07:39:56.167Z,11.13
2018-11-13T07:40:34.142Z,11.70
2018-11-13T07:41:12.152Z,11.90
2018-11-13T07:41:50.248Z,10.50
2018-11-13T07:42:28.563Z,11.80
2018-11-13T07:43:06.542Z,12.30
2018-11-13T07:43:45.362Z,11.50
2018-11-13T07:44:23.432Z,10.47
2018-11-13T07:45:01.480Z,12.00
2018-11-13T07:45:39.530Z,11.80
2018-11-13T07:46:17.387Z,10.30
2018-11-13T07:46:55.408Z,11.33
2018-11-13T07:47:33.478Z,10.70
2018-11-13T07:48:11.772Z,11.93
2018-11-13T07:48:49.779Z,10.13
2018-11-13T07:49:27.687Z,10.53
2018-11-13T07:50:05.797Z,10.23
2018-11-13T07:50:43.699Z,11.00
2018-11-13T07:51:21.737Z,11.30
2018-11-13T07:51:59.716Z,11.10
2018-11-13T07:52:37.821Z,10.87
2018-11-13T07:53:15.838Z,11.60
2018-11-13T07:53:53.672Z,11.40
2018-11-13T07:54:31.833Z,10.90
2018-11-13T07:55:10.234Z,9.70
2018-11-13T07:55:48.336Z,11.00
2018-11-13T07:56:26.249Z,10.43
2018-11-13T07:57:04.100Z,9.77
2018-11-13T07:57:41.953Z,11.00
2018-11-13T07:58:20.328Z,10.80
2018-11-13T07:58:58.216Z,10.60
2018-11-13T07:59:36.311Z,10.73
2018-11-13T08:00:18.217Z,10.70
2018-11-13T08:00:56.583Z,10.20
2018-11-13T08:01:34.470Z,10.40
2018-11-13T08:02:12.846Z,10.03
2018-11-13T08:02:51.996Z,10.70
2018-11-13T08:03:34.835Z,9.33
2018-11-13T08:04:12.714Z,9.47
2018-11-13T08:04:50.546Z,10.00
2018-11-13T08:05:28.552Z,8.73
2018-11-13T08:06:07.210Z,9.73
2018-11-13T08:06:45.209Z,9.57
2018-11-13T08:07:23.213Z,9.87
2018-11-13T08:08:01.298Z,8.67
2018-11-13T08:08:39.163Z,8.87
2018-11-13T08:09:17.028Z,9.23
2018-11-13T08:09:55.765Z,8.53
2018-11-13T08:10:33.603Z,9.23
2018-11-13T08:11:11.844Z,9.37
2018-11-13T08:11:49.698Z,9.70
2018-11-13T08:12:35.219Z,8.87
2018-11-13T08:13:13.597Z,9.20
2018-11-13T08:13:51.725Z,8.90
2018-11-13T08:14:29.743Z,8.87
2018-11-13T08:15:08.231Z,9.13
2018-11-13T08:15:46.342Z,8.83
2018-11-13T08:16:24.243Z,8.37
2018-11-13T08:17:02.201Z,8.67
2018-11-13T08:17:40.246Z,9.10
2018-11-13T08:18:18.508Z,8.63
2018-11-13T08:18:56.414Z,8.80
2018-11-13T08:19:34.326Z,9.07
2018-11-13T08:20:14.775Z,8.27
2018-11-13T08:20:53.063Z,8.90